Time;durP1;ratioP1;P1;durP2;ratioP2;P2;SDS_P1;SDS_P2;PMS_P1;PMS_P2;Temp;Humidity;BMP_temperature;BMP_pressure;BME280_temperature;BME280_humidity;BME280_pressure;Samples;Min_cycle;Max_cycle;Signal;HPM_P1;HPM_P2
2022/10/21 00:01:14;;;;;;;;;;;23.80;99.90;;;;;;4190981;28;20374;-69
2022/10/21 00:03:19;;;;;;;;;;;23.70;99.90;;;;;;4193962;28;19937;-69
2022/10/21 00:05:26;;;;;;;;;;;23.60;99.90;;;;;;4208305;28;19936;-69
2022/10/21 00:07:30;;;;;;;;;;;23.50;99.90;;;;;;4192162;28;19928;-69
2022/10/21 00:09:34;;;;;;;;;;;23.50;99.90;;;;;;4194418;28;20251;-70
2022/10/21 00:11:44;;;;;;;;;;;23.50;99.90;;;;;;4183940;28;19980;-70
2022/10/21 00:13:48;;;;;;;;;;;23.50;99.90;;;;;;4192608;28;19940;-69
2022/10/21 00:15:59;;;;;;;;;;;23.60;99.90;;;;;;4194521;28;20462;-70
2022/10/21 00:18:07;;;;;;;;;;;23.60;99.90;;;;;;4192649;28;19935;-70
2022/10/21 00:20:13;;;;;;;;;;;23.60;99.90;;;;;;4192834;28;19993;-70
2022/10/21 00:22:17;;;;;;;;;;;23.70;99.90;;;;;;4187253;28;19933;-69
2022/10/21 00:24:25;;;;;;;;;;;23.80;99.90;;;;;;4192918;28;19928;-69
2022/10/21 00:26:29;;;;;;;;;;;23.80;99.90;;;;;;4186468;28;19929;-68
2022/10/21 00:28:39;;;;;;;;;;;23.80;99.90;;;;;;4182571;28;19929;-69
2022/10/21 00:30:46;;;;;;;;;;;23.90;99.90;;;;;;4194060;28;19943;-69
2022/10/21 00:32:52;;;;;;;;;;;23.90;99.90;;;;;;4194178;28;19976;-69
2022/10/21 00:35:01;;;;;;;;;;;23.80;99.90;;;;;;4193572;28;19971;-70
2022/10/21 00:37:06;;;;;;;;;;;23.80;99.90;;;;;;4193838;28;19944;-70
2022/10/21 00:39:10;;;;;;;;;;;24.00;99.90;;;;;;4193411;28;19928;-69
2022/10/21 00:41:16;;;;;;;;;;;24.10;99.90;;;;;;4205753;28;19932;-69
2022/10/21 00:43:21;;;;;;;;;;;24.10;99.90;;;;;;4192695;28;19982;-70
2022/10/21 00:45:26;;;;;;;;;;;24.10;99.90;;;;;;4191354;28;19932;-70
2022/10/21 00:47:30;;;;;;;;;;;24.00;99.90;;;;;;4192971;28;19939;-69
2022/10/21 00:49:43;;;;;;;;;;;24.10;99.90;;;;;;4192398;28;19924;-68
2022/10/21 00:51:48;;;;;;;;;;;24.10;99.80;;;;;;4207356;28;20314;-69
2022/10/21 00:53:54;;;;;;;;;;;24.20;99.90;;;;;;4207882;28;19977;-69
2022/10/21 00:56:03;;;;;;;;;;;24.40;99.90;;;;;;4149836;28;19944;-68
2022/10/21 00:58:08;;;;;;;;;;;24.40;99.20;;;;;;4207294;28;20094;-69
2022/10/21 01:00:12;;;;;;;;;;;24.40;99.20;;;;;;4192697;28;19947;-70
2022/10/21 01:02:17;;;;;;;;;;;24.40;98.40;;;;;;4188748;28;19928;-69
2022/10/21 01:04:21;;;;;;;;;;;24.40;98.50;;;;;;4174327;28;19933;-69
2022/10/21 01:06:26;;;;;;;;;;;24.50;98.70;;;;;;4188813;28;19928;-69
2022/10/21 01:08:37;;;;;;;;;;;24.60;98.40;;;;;;4166811;28;19932;-69
2022/10/21 01:10:48;;;;;;;;;;;24.70;98.30;;;;;;4163823;28;19929;-69
2022/10/21 01:13:00;;;;;;;;;;;24.60;98.40;;;;;;4164331;28;19925;-69
2022/10/21 01:15:35;;;;;;;;;;;24.70;98.20;;;;;;4152906;28;19929;-70
2022/10/21 01:17:39;;;;;;;;;;;24.70;98.50;;;;;;4164271;28;19939;-70
2022/10/21 01:19:53;;;;;;;;;;;24.80;98.50;;;;;;4167461;28;19935;-69
2022/10/21 01:22:10;;;;;;;;;;;24.80;98.20;;;;;;4166573;28;19932;-69
2022/10/21 01:24:34;;;;;;;;;;;24.90;97.80;;;;;;4167240;28;19943;-68
2022/10/21 01:26:53;;;;;;;;;;;24.90;98.00;;;;;;4167818;28;19931;-69
2022/10/21 01:28:59;;;;;;;;;;;25.00;97.80;;;;;;4151789;28;19929;-70
2022/10/21 01:31:06;;;;;;;;;;;25.10;97.50;;;;;;4167239;28;19928;-69
2022/10/21 01:33:15;;;;;;;;;;;25.10;97.40;;;;;;4173638;28;19929;-69
2022/10/21 01:35:33;;;;;;;;;;;25.30;97.00;;;;;;4186251;28;19998;-69
2022/10/21 01:37:50;;;;;;;;;;;25.30;96.90;;;;;;4176397;28;20397;-68
2022/10/21 01:39:57;;;;;;;;;;;25.40;96.60;;;;;;4190692;28;19929;-69
2022/10/21 01:42:31;;;;;;;;;;;25.50;96.10;;;;;;4196543;28;19929;-68
2022/10/21 01:44:41;;;;;;;;;;;25.50;95.80;;;;;;4196435;28;19970;-69
2022/10/21 01:46:49;;;;;;;;;;;25.40;95.90;;;;;;4195716;28;19932;-69
2022/10/21 01:49:03;;;;;;;;;;;25.50;96.00;;;;;;4176272;28;20119;-68
2022/10/21 01:51:11;;;;;;;;;;;25.60;95.80;;;;;;4184307;28;20031;-68
2022/10/21 01:53:19;;;;;;;;;;;25.60;95.00;;;;;;4210389;28;19961;-70
2022/10/21 01:55:38;;;;;;;;;;;25.60;95.40;;;;;;4178375;28;20026;-69
2022/10/21 01:57:43;;;;;;;;;;;25.60;95.20;;;;;;4195946;28;19935;-69
2022/10/21 01:59:49;;;;;;;;;;;25.50;94.50;;;;;;4193599;28;19928;-69
2022/10/21 02:02:14;;;;;;;;;;;25.60;94.80;;;;;;4200867;28;20370;-70
2022/10/21 02:04:19;;;;;;;;;;;25.70;94.80;;;;;;4195887;28;19932;-70
2022/10/21 02:06:24;;;;;;;;;;;25.80;94.70;;;;;;4211631;28;19966;-69
2022/10/21 02:08:29;;;;;;;;;;;25.90;94.60;;;;;;4194443;28;20058;-68
2022/10/21 02:10:34;;;;;;;;;;;25.90;94.90;;;;;;4196202;28;20531;-67
2022/10/21 02:12:42;;;;;;;;;;;26.00;94.70;;;;;;4196451;28;20378;-69
2022/10/21 02:14:52;;;;;;;;;;;26.00;94.50;;;;;;4194604;28;20051;-68
2022/10/21 02:16:57;;;;;;;;;;;26.10;94.50;;;;;;4195159;28;19964;-68
2022/10/21 02:19:05;;;;;;;;;;;26.20;94.60;;;;;;4209074;28;19932;-69
2022/10/21 02:21:14;;;;;;;;;;;26.20;94.80;;;;;;4182347;28;19959;-67
2022/10/21 02:23:20;;;;;;;;;;;26.00;94.40;;;;;;4183607;28;19928;-68
2022/10/21 02:25:44;;;;;;;;;;;26.00;94.70;;;;;;4174203;28;19925;-68
2022/10/21 02:27:51;;;;;;;;;;;26.10;95.10;;;;;;4185001;28;19928;-67
2022/10/21 02:29:56;;;;;;;;;;;26.20;94.80;;;;;;4168929;28;20031;-68
2022/10/21 02:32:06;;;;;;;;;;;26.20;95.00;;;;;;4170177;28;19933;-68
2022/10/21 02:34:29;;;;;;;;;;;26.00;94.60;;;;;;4185101;28;20469;-68
2022/10/21 02:36:34;;;;;;;;;;;26.20;95.20;;;;;;4185057;28;19924;-69
2022/10/21 02:38:40;;;;;;;;;;;26.10;94.30;;;;;;4185460;28;19925;-69
2022/10/21 02:40:52;;;;;;;;;;;26.10;94.80;;;;;;4182515;28;19987;-70
2022/10/21 02:42:57;;;;;;;;;;;26.20;94.80;;;;;;4168955;28;19941;-69
2022/10/21 02:45:02;;;;;;;;;;;26.30;94.60;;;;;;4169061;28;19929;-69
2022/10/21 02:47:09;;;;;;;;;;;26.40;94.40;;;;;;4184824;28;20087;-69
2022/10/21 02:49:18;;;;;;;;;;;26.40;94.20;;;;;;4185444;28;19932;-69
2022/10/21 02:51:23;;;;;;;;;;;26.60;94.10;;;;;;4168289;28;19929;-69
2022/10/21 02:53:31;;;;;;;;;;;26.70;94.40;;;;;;4170357;28;20036;-68
2022/10/21 02:55:36;;;;;;;;;;;26.80;94.50;;;;;;4193890;28;19932;-69
2022/10/21 02:57:40;;;;;;;;;;;26.70;94.20;;;;;;4187204;28;19975;-70
2022/10/21 02:59:48;;;;;;;;;;;26.70;94.50;;;;;;4193106;28;19924;-68
2022/10/21 03:01:52;;;;;;;;;;;26.80;94.70;;;;;;4195718;28;20031;-68
2022/10/21 03:03:58;;;;;;;;;;;26.90;94.60;;;;;;4193916;28;19950;-69
2022/10/21 03:06:03;;;;;;;;;;;26.90;94.50;;;;;;4195279;28;20282;-69
2022/10/21 03:08:07;;;;;;;;;;;27.00;94.20;;;;;;4174296;28;19968;-69
2022/10/21 03:10:11;;;;;;;;;;;27.00;93.80;;;;;;4207784;28;19927;-71
2022/10/21 03:12:18;;;;;;;;;;;26.90;94.20;;;;;;4194285;28;20447;-69
2022/10/21 03:14:22;;;;;;;;;;;26.90;94.60;;;;;;4192159;28;19928;-69
2022/10/21 03:16:26;;;;;;;;;;;27.00;94.40;;;;;;4195351;28;20020;-69
2022/10/21 03:18:34;;;;;;;;;;;27.00;94.50;;;;;;4194712;28;19963;-71
2022/10/21 03:20:38;;;;;;;;;;;27.10;94.10;;;;;;4192288;28;20000;-69
2022/10/21 03:22:44;;;;;;;;;;;27.20;94.00;;;;;;4190335;28;20018;-70
2022/10/21 03:24:52;;;;;;;;;;;27.20;94.10;;;;;;4194950;28;19925;-71
2022/10/21 03:26:57;;;;;;;;;;;27.30;93.80;;;;;;4209901;28;19939;-70
2022/10/21 03:29:08;;;;;;;;;;;27.30;93.70;;;;;;4193606;28;20007;-71
2022/10/21 03:31:19;;;;;;;;;;;27.30;94.10;;;;;;4146524;28;19935;-70
2022/10/21 03:33:31;;;;;;;;;;;27.30;94.00;;;;;;4195298;28;19932;-70
2022/10/21 03:35:37;;;;;;;;;;;27.40;93.60;;;;;;4195878;28;19978;-70
2022/10/21 03:37:43;;;;;;;;;;;27.40;93.60;;;;;;4201831;28;19924;-70
2022/10/21 03:39:48;;;;;;;;;;;27.50;93.70;;;;;;4227202;28;19951;-69
2022/10/21 03:41:54;;;;;;;;;;;27.60;93.70;;;;;;4227435;28;20006;-70
2022/10/21 03:44:02;;;;;;;;;;;27.60;93.50;;;;;;4227811;28;19932;-69
2022/10/21 03:46:06;;;;;;;;;;;27.60;93.30;;;;;;4194754;28;19924;-68
2022/10/21 03:48:10;;;;;;;;;;;27.70;93.90;;;;;;4210335;28;20635;-68
2022/10/21 03:50:18;;;;;;;;;;;27.70;93.60;;;;;;4206552;28;19928;-69
2022/10/21 03:52:28;;;;;;;;;;;27.70;93.30;;;;;;4211933;28;19932;-67
2022/10/21 03:54:33;;;;;;;;;;;27.80;93.70;;;;;;4181663;28;19929;-66
2022/10/21 03:56:42;;;;;;;;;;;27.90;93.80;;;;;;4195090;28;20695;-67
2022/10/21 03:58:48;;;;;;;;;;;27.90;93.40;;;;;;4195311;28;20011;-67
2022/10/21 04:01:00;;;;;;;;;;;27.80;93.10;;;;;;4194358;28;19928;-68
2022/10/21 04:03:15;;;;;;;;;;;27.90;93.50;;;;;;4208142;28;19977;-68
2022/10/21 04:05:27;;;;;;;;;;;28.00;93.20;;;;;;4192630;28;19929;-69
2022/10/21 04:07:32;;;;;;;;;;;27.90;92.90;;;;;;4212158;28;20012;-67
2022/10/21 04:09:45;;;;;;;;;;;28.00;93.00;;;;;;4192024;28;19925;-67
2022/10/21 04:11:49;;;;;;;;;;;28.10;92.90;;;;;;4190072;28;19974;-68
2022/10/21 04:13:53;;;;;;;;;;;28.20;92.80;;;;;;4187248;28;20494;-68
2022/10/21 04:16:00;;;;;;;;;;;28.20;92.70;;;;;;4189767;28;20711;-68
2022/10/21 04:18:05;;;;;;;;;;;28.20;93.20;;;;;;4193889;28;19929;-69
2022/10/21 04:20:09;;;;;;;;;;;28.20;92.60;;;;;;4187950;28;20334;-69
2022/10/21 04:22:18;;;;;;;;;;;28.20;93.10;;;;;;4133166;28;20472;-68
2022/10/21 04:24:22;;;;;;;;;;;28.20;92.80;;;;;;4192979;28;20034;-68
2022/10/21 04:26:27;;;;;;;;;;;28.20;92.70;;;;;;4184620;28;19928;-69
2022/10/21 04:28:34;;;;;;;;;;;28.30;93.00;;;;;;4202422;28;20001;-68
2022/10/21 04:30:38;;;;;;;;;;;28.20;92.70;;;;;;4191198;28;19936;-68
2022/10/21 04:32:42;;;;;;;;;;;28.30;92.60;;;;;;4191120;28;20347;-68
2022/10/21 04:34:52;;;;;;;;;;;28.30;92.60;;;;;;4193406;28;19932;-68
2022/10/21 04:37:00;;;;;;;;;;;28.30;92.40;;;;;;4192610;28;19924;-69
2022/10/21 04:39:09;;;;;;;;;;;28.40;92.60;;;;;;4195330;28;19931;-68
2022/10/21 04:41:17;;;;;;;;;;;28.40;92.90;;;;;;4208963;28;19924;-69
2022/10/21 04:43:24;;;;;;;;;;;28.50;92.60;;;;;;4191398;28;19939;-70
2022/10/21 04:45:28;;;;;;;;;;;28.50;92.40;;;;;;4192887;28;19935;-70
2022/10/21 04:47:36;;;;;;;;;;;28.60;92.30;;;;;;4140262;28;19929;-70
2022/10/21 04:49:41;;;;;;;;;;;28.70;92.10;;;;;;4189504;28;19955;-67
2022/10/21 04:51:45;;;;;;;;;;;28.60;92.10;;;;;;4190255;28;19964;-68
2022/10/21 04:53:53;;;;;;;;;;;28.60;92.10;;;;;;4183569;28;19929;-68
2022/10/21 04:55:58;;;;;;;;;;;28.60;92.00;;;;;;4192125;28;19925;-69
2022/10/21 04:58:02;;;;;;;;;;;28.60;92.00;;;;;;4191665;28;19932;-68
2022/10/21 05:00:09;;;;;;;;;;;28.70;92.30;;;;;;4190066;28;19924;-68
2022/10/21 05:02:29;;;;;;;;;;;28.80;92.20;;;;;;4177916;28;19936;-67
2022/10/21 05:04:37;;;;;;;;;;;28.90;91.90;;;;;;4192286;28;19928;-68
2022/10/21 05:06:46;;;;;;;;;;;29.10;91.70;;;;;;4154655;28;20006;-68
2022/10/21 05:08:53;;;;;;;;;;;29.10;91.30;;;;;;4174643;28;19931;-68
2022/10/21 05:11:01;;;;;;;;;;;29.30;91.70;;;;;;4193561;28;19934;-68
2022/10/21 05:13:08;;;;;;;;;;;29.30;92.10;;;;;;4190366;28;19933;-68
2022/10/21 05:15:14;;;;;;;;;;;29.30;91.30;;;;;;4191045;28;19929;-68
2022/10/21 05:17:18;;;;;;;;;;;29.40;91.40;;;;;;4191068;28;19932;-68
2022/10/21 05:19:26;;;;;;;;;;;29.40;91.10;;;;;;4138276;28;19933;-68
2022/10/21 05:21:33;;;;;;;;;;;29.40;91.20;;;;;;4191493;28;19998;-68
2022/10/21 05:23:42;;;;;;;;;;;29.40;91.30;;;;;;4192958;28;19928;-68
2022/10/21 05:25:56;;;;;;;;;;;29.20;91.40;;;;;;4164650;28;20482;-68
2022/10/21 05:28:01;;;;;;;;;;;29.20;91.40;;;;;;4181497;28;19933;-68
2022/10/21 05:30:07;;;;;;;;;;;29.20;91.20;;;;;;4207498;28;19924;-70
2022/10/21 05:32:15;;;;;;;;;;;29.30;91.20;;;;;;4163019;28;19933;-69
2022/10/21 05:34:19;;;;;;;;;;;29.40;91.20;;;;;;4192270;28;19955;-68
2022/10/21 05:36:27;;;;;;;;;;;29.50;91.30;;;;;;4182266;28;20394;-69
2022/10/21 05:38:40;;;;;;;;;;;29.50;91.40;;;;;;4206974;28;20636;-69
2022/10/21 05:40:47;;;;;;;;;;;29.60;91.50;;;;;;4193161;28;19950;-69
2022/10/21 05:43:00;;;;;;;;;;;29.70;91.10;;;;;;4191879;28;21235;-69
2022/10/21 05:45:08;;;;;;;;;;;29.70;90.80;;;;;;4192318;28;19928;-69
2022/10/21 05:47:12;;;;;;;;;;;29.70;90.70;;;;;;4187654;28;19971;-68
2022/10/21 05:49:16;;;;;;;;;;;29.80;90.80;;;;;;4192169;28;19928;-69
2022/10/21 05:51:25;;;;;;;;;;;29.90;90.90;;;;;;4190192;28;20024;-69
2022/10/21 05:53:30;;;;;;;;;;;29.90;91.00;;;;;;4205051;28;19928;-69
2022/10/21 05:55:34;;;;;;;;;;;30.00;90.80;;;;;;4193153;28;19938;-70
2022/10/21 05:57:42;;;;;;;;;;;30.00;90.40;;;;;;4186331;28;21421;-69
2022/10/21 05:59:47;;;;;;;;;;;30.00;90.20;;;;;;4155047;28;20015;-68
2022/10/21 06:01:51;;;;;;;;;;;30.00;90.30;;;;;;4176427;28;19925;-69
2022/10/21 06:03:58;;;;;;;;;;;30.00;90.20;;;;;;4174895;28;20615;-69
2022/10/21 06:06:04;;;;;;;;;;;30.00;90.10;;;;;;4171157;28;19929;-69
2022/10/21 06:08:08;;;;;;;;;;;29.90;90.00;;;;;;4199869;28;19971;-70
2022/10/21 06:10:15;;;;;;;;;;;30.00;90.20;;;;;;3298531;28;10000911;-69
2022/10/21 06:12:19;;;;;;;;;;;30.10;90.50;;;;;;4189681;28;19972;-69
2022/10/21 06:14:24;;;;;;;;;;;30.20;90.10;;;;;;4185595;28;19936;-69
2022/10/21 06:16:34;;;;;;;;;;;30.20;89.80;;;;;;4187750;28;20058;-69
2022/10/21 06:18:39;;;;;;;;;;;30.20;90.00;;;;;;4176192;28;19929;-69
2022/10/21 06:20:43;;;;;;;;;;;30.30;90.10;;;;;;4171279;28;19946;-69
2022/10/21 06:22:49;;;;;;;;;;;30.30;90.10;;;;;;4167730;28;19960;-68
2022/10/21 06:24:54;;;;;;;;;;;30.30;89.30;;;;;;4194842;28;20314;-69
2022/10/21 06:26:58;;;;;;;;;;;30.30;88.80;;;;;;4193034;28;19971;-69
2022/10/21 06:29:06;;;;;;;;;;;30.30;90.00;;;;;;4192263;28;20449;-69
2022/10/21 06:31:14;;;;;;;;;;;30.40;88.90;;;;;;4208230;28;19928;-69
2022/10/21 06:33:20;;;;;;;;;;;30.30;89.20;;;;;;4181641;28;20436;-69
2022/10/21 06:35:30;;;;;;;;;;;30.30;89.70;;;;;;4208000;28;19934;-68
2022/10/21 06:37:35;;;;;;;;;;;30.40;89.40;;;;;;4195126;28;19968;-69
2022/10/21 06:39:42;;;;;;;;;;;30.40;89.20;;;;;;4194367;28;19929;-70
2022/10/21 06:41:48;;;;;;;;;;;30.40;89.00;;;;;;4191422;28;19967;-68
2022/10/21 06:44:12;;;;;;;;;;;30.40;88.70;;;;;;4194799;28;19978;-69
2022/10/21 06:46:28;;;;;;;;;;;30.50;88.60;;;;;;4194071;28;20451;-69
2022/10/21 06:48:42;;;;;;;;;;;30.40;88.80;;;;;;4208586;28;19932;-67
2022/10/21 06:50:47;;;;;;;;;;;30.50;89.70;;;;;;4194157;28;19928;-68
2022/10/21 06:52:52;;;;;;;;;;;30.50;89.50;;;;;;4193920;28;19924;-69
2022/10/21 06:54:59;;;;;;;;;;;30.50;89.70;;;;;;4159311;28;19933;-68
2022/10/21 06:57:03;;;;;;;;;;;30.60;90.00;;;;;;4194355;28;19950;-69
2022/10/21 06:59:08;;;;;;;;;;;30.50;89.40;;;;;;4194264;28;20325;-69
2022/10/21 07:01:16;;;;;;;;;;;30.50;89.60;;;;;;4188715;28;19972;-69
2022/10/21 07:03:36;;;;;;;;;;;30.40;89.50;;;;;;4191718;28;20011;-69
2022/10/21 07:05:58;;;;;;;;;;;30.40;89.00;;;;;;4207190;28;19961;-69
2022/10/21 07:08:22;;;;;;;;;;;30.40;88.10;;;;;;4188428;28;19979;-68
2022/10/21 07:10:46;;;;;;;;;;;30.50;89.10;;;;;;4207757;28;19924;-69
2022/10/21 07:12:50;;;;;;;;;;;30.50;88.80;;;;;;4194953;28;19928;-69
2022/10/21 07:14:57;;;;;;;;;;;30.60;89.10;;;;;;4194743;28;19955;-69
2022/10/21 07:17:04;;;;;;;;;;;30.70;89.00;;;;;;4199827;28;19978;-69
2022/10/21 07:19:08;;;;;;;;;;;30.70;88.80;;;;;;4202347;28;19959;-69
2022/10/21 07:21:17;;;;;;;;;;;30.70;88.10;;;;;;4211160;28;19972;-68
2022/10/21 07:23:22;;;;;;;;;;;30.80;88.40;;;;;;4195244;28;19985;-69
2022/10/21 07:25:26;;;;;;;;;;;30.70;86.00;;;;;;4211020;28;19935;-70
2022/10/21 07:27:37;;;;;;;;;;;30.60;87.10;;;;;;4128309;28;20429;-69
2022/10/21 07:29:47;;;;;;;;;;;30.60;86.90;;;;;;4196140;28;19986;-70
2022/10/21 07:31:55;;;;;;;;;;;30.60;87.20;;;;;;4176872;28;19928;-70
2022/10/21 07:34:04;;;;;;;;;;;30.60;87.00;;;;;;4195250;28;19924;-69
2022/10/21 07:36:13;;;;;;;;;;;30.70;86.70;;;;;;4195601;28;20312;-69
2022/10/21 07:38:18;;;;;;;;;;;30.60;86.60;;;;;;4206743;28;19928;-69
2022/10/21 07:40:29;;;;;;;;;;;30.60;87.00;;;;;;4212103;28;19977;-68
2022/10/21 07:42:33;;;;;;;;;;;30.60;87.00;;;;;;4198283;28;19967;-69
2022/10/21 07:44:38;;;;;;;;;;;30.60;87.40;;;;;;4195184;28;19932;-69
2022/10/21 07:46:48;;;;;;;;;;;30.60;87.30;;;;;;4194170;28;19924;-70
2022/10/21 07:48:54;;;;;;;;;;;30.60;87.40;;;;;;4207702;28;19940;-71
2022/10/21 07:51:02;;;;;;;;;;;30.60;87.70;;;;;;4194542;28;19932;-69
2022/10/21 07:53:13;;;;;;;;;;;30.70;87.60;;;;;;4157627;28;20388;-69
2022/10/21 07:55:18;;;;;;;;;;;30.70;87.50;;;;;;4194419;28;20034;-70
2022/10/21 07:57:22;;;;;;;;;;;30.80;86.90;;;;;;4194680;28;20444;-70
2022/10/21 07:59:31;;;;;;;;;;;30.90;87.50;;;;;;4148350;28;19992;-69
2022/10/21 08:01:36;;;;;;;;;;;30.90;87.10;;;;;;4194140;28;20662;-69
2022/10/21 08:03:40;;;;;;;;;;;30.90;86.60;;;;;;4194163;28;19975;-69
2022/10/21 08:05:47;;;;;;;;;;;30.70;86.00;;;;;;4194290;28;20516;-69
2022/10/21 08:07:51;;;;;;;;;;;30.70;86.50;;;;;;4194144;28;20031;-69
2022/10/21 08:09:56;;;;;;;;;;;30.80;86.60;;;;;;4194644;28;19924;-68
2022/10/21 08:12:07;;;;;;;;;;;30.90;87.00;;;;;;4194194;28;20563;-69
2022/10/21 08:14:17;;;;;;;;;;;30.90;87.70;;;;;;4193142;28;19989;-68
2022/10/21 08:16:21;;;;;;;;;;;30.90;87.80;;;;;;4193971;28;19951;-69
2022/10/21 08:18:26;;;;;;;;;;;30.80;88.00;;;;;;4208459;28;19967;-69
2022/10/21 08:20:30;;;;;;;;;;;30.70;87.50;;;;;;4194802;28;20437;-69
2022/10/21 08:22:35;;;;;;;;;;;30.60;87.60;;;;;;4208946;28;20344;-71
2022/10/21 08:24:42;;;;;;;;;;;30.60;87.50;;;;;;4158566;28;19972;-71
2022/10/21 08:26:47;;;;;;;;;;;30.70;86.80;;;;;;4209249;28;20479;-70
2022/10/21 08:28:51;;;;;;;;;;;30.70;87.00;;;;;;4191997;28;19931;-70
2022/10/21 08:31:04;;;;;;;;;;;30.60;87.00;;;;;;4210731;28;19928;-70
2022/10/21 08:33:08;;;;;;;;;;;30.40;86.70;;;;;;4194206;28;20639;-72
2022/10/21 08:35:12;;;;;;;;;;;30.40;86.80;;;;;;4193102;28;19948;-71
2022/10/21 08:37:19;;;;;;;;;;;30.40;87.10;;;;;;4194998;28;19932;-70
2022/10/21 08:39:28;;;;;;;;;;;30.40;87.60;;;;;;4194061;28;20434;-70
2022/10/21 08:41:34;;;;;;;;;;;30.40;88.00;;;;;;4190874;28;19982;-70
2022/10/21 08:43:39;;;;;;;;;;;30.50;87.90;;;;;;4166056;28;19928;-69
2022/10/21 08:45:45;;;;;;;;;;;30.60;88.00;;;;;;4198724;28;19935;-70
2022/10/21 08:47:50;;;;;;;;;;;30.50;88.30;;;;;;4191423;28;20279;-70
2022/10/21 08:50:02;;;;;;;;;;;30.50;87.90;;;;;;4207130;28;19935;-70
2022/10/21 08:52:14;;;;;;;;;;;30.50;88.20;;;;;;4209650;28;19924;-69
2022/10/21 08:54:23;;;;;;;;;;;30.50;87.30;;;;;;4207922;28;19986;-71
2022/10/21 08:56:39;;;;;;;;;;;30.50;87.30;;;;;;4185612;28;19982;-71
2022/10/21 08:58:45;;;;;;;;;;;30.50;86.50;;;;;;4193992;28;19989;-71
2022/10/21 09:00:59;;;;;;;;;;;30.40;86.90;;;;;;4208995;28;20979;-69
2022/10/21 09:03:15;;;;;;;;;;;30.40;86.90;;;;;;4192829;28;19940;-70
2022/10/21 09:05:29;;;;;;;;;;;30.40;87.10;;;;;;4189770;28;19936;-70
2022/10/21 09:07:33;;;;;;;;;;;30.40;87.10;;;;;;4192823;28;19959;-70
2022/10/21 09:09:46;;;;;;;;;;;30.30;87.20;;;;;;4208375;28;19924;-71
2022/10/21 09:11:50;;;;;;;;;;;30.30;87.70;;;;;;4180360;28;19924;-70
2022/10/21 09:13:54;;;;;;;;;;;30.30;88.00;;;;;;4184054;28;19929;-70
2022/10/21 09:16:06;;;;;;;;;;;30.20;88.00;;;;;;4187709;28;19931;-71
2022/10/21 09:18:14;;;;;;;;;;;30.20;88.30;;;;;;4192943;28;19975;-71
2022/10/21 09:20:21;;;;;;;;;;;30.20;88.60;;;;;;4207354;28;20014;-70
2022/10/21 09:22:40;;;;;;;;;;;30.10;87.40;;;;;;4190034;28;19971;-71
2022/10/21 09:24:51;;;;;;;;;;;30.00;88.10;;;;;;4191933;28;19964;-71
2022/10/21 09:26:55;;;;;;;;;;;30.00;88.40;;;;;;4186158;28;20039;-72
2022/10/21 09:29:19;;;;;;;;;;;30.00;88.00;;;;;;4207576;28;19963;-70
2022/10/21 09:31:24;;;;;;;;;;;30.00;88.30;;;;;;4192151;28;20015;-70
2022/10/21 09:33:30;;;;;;;;;;;30.10;88.60;;;;;;4192734;28;19966;-71
2022/10/21 09:35:38;;;;;;;;;;;30.10;88.40;;;;;;4191167;28;19928;-71
2022/10/21 09:37:44;;;;;;;;;;;30.10;88.30;;;;;;4192657;28;20723;-69
2022/10/21 09:39:50;;;;;;;;;;;30.20;88.50;;;;;;4179144;28;19939;-71
2022/10/21 09:41:59;;;;;;;;;;;30.20;89.00;;;;;;4156093;28;19967;-71
2022/10/21 09:44:16;;;;;;;;;;;30.10;89.10;;;;;;4191656;28;19925;-70
2022/10/21 09:46:20;;;;;;;;;;;30.10;89.20;;;;;;4189840;28;20498;-72
2022/10/21 09:48:36;;;;;;;;;;;30.10;88.80;;;;;;4188276;28;19956;-71
2022/10/21 09:51:04;;;;;;;;;;;30.00;88.90;;;;;;4209836;28;19928;-71
2022/10/21 09:53:21;;;;;;;;;;;30.00;88.70;;;;;;4178303;28;20671;-71
2022/10/21 09:55:29;;;;;;;;;;;30.00;88.60;;;;;;4210247;28;19928;-71
2022/10/21 09:57:53;;;;;;;;;;;29.90;88.50;;;;;;4196143;28;20389;-72
2022/10/21 09:59:58;;;;;;;;;;;29.90;88.80;;;;;;4182195;28;20015;-71
2022/10/21 10:02:13;;;;;;;;;;;29.90;88.80;;;;;;4210490;28;20018;-72
2022/10/21 10:04:23;;;;;;;;;;;29.80;89.30;;;;;;4195247;28;19932;-70
2022/10/21 10:06:31;;;;;;;;;;;29.80;90.10;;;;;;4183510;28;20031;-72
2022/10/21 10:08:39;;;;;;;;;;;29.80;90.00;;;;;;4196599;28;20007;-71
2022/10/21 10:10:45;;;;;;;;;;;29.70;89.70;;;;;;4195865;28;19958;-71
2022/10/21 10:12:57;;;;;;;;;;;29.60;90.00;;;;;;4196632;28;19933;-71
2022/10/21 10:15:21;;;;;;;;;;;29.60;90.20;;;;;;4194318;28;19933;-70
2022/10/21 10:17:34;;;;;;;;;;;29.60;90.70;;;;;;4194148;28;19929;-71
2022/10/21 10:19:38;;;;;;;;;;;29.60;90.60;;;;;;4195554;28;20387;-72
2022/10/21 10:21:43;;;;;;;;;;;29.60;90.50;;;;;;4210738;28;19932;-72
2022/10/21 10:23:48;;;;;;;;;;;29.60;90.60;;;;;;4197199;28;19928;-73
2022/10/21 10:25:52;;;;;;;;;;;29.60;90.60;;;;;;4194809;28;19928;-74
2022/10/21 10:28:01;;;;;;;;;;;29.50;90.60;;;;;;4211211;28;19924;-74
2022/10/21 10:30:12;;;;;;;;;;;29.60;90.70;;;;;;4210577;28;20315;-73
2022/10/21 10:32:22;;;;;;;;;;;29.50;90.80;;;;;;4185794;28;19935;-73
2022/10/21 10:34:49;;;;;;;;;;;29.50;91.40;;;;;;4209086;28;19928;-75
2022/10/21 10:37:05;;;;;;;;;;;29.50;91.50;;;;;;4209665;28;19999;-75
2022/10/21 10:39:21;;;;;;;;;;;29.50;91.60;;;;;;4195784;28;19931;-73
2022/10/21 10:41:30;;;;;;;;;;;29.40;91.90;;;;;;4195952;28;19932;-74
2022/10/21 10:43:41;;;;;;;;;;;29.40;92.10;;;;;;4189676;28;19994;-72
2022/10/21 10:45:47;;;;;;;;;;;29.40;92.30;;;;;;4193820;28;19928;-74
2022/10/21 10:47:55;;;;;;;;;;;29.30;92.80;;;;;;4170542;28;19959;-73
2022/10/21 10:50:00;;;;;;;;;;;29.20;93.00;;;;;;4192530;28;19924;-74
2022/10/21 10:52:06;;;;;;;;;;;29.20;93.20;;;;;;4179723;28;19932;-72
2022/10/21 10:54:19;;;;;;;;;;;29.20;93.40;;;;;;4196899;28;20650;-73
2022/10/21 10:56:36;;;;;;;;;;;29.10;93.50;;;;;;4183830;28;20571;-74
2022/10/21 10:58:42;;;;;;;;;;;29.20;93.60;;;;;;4202265;28;19932;-74
2022/10/21 11:00:53;;;;;;;;;;;29.20;93.80;;;;;;4191155;28;19939;-75
2022/10/21 11:03:04;;;;;;;;;;;29.10;93.90;;;;;;4175289;28;19940;-72
2022/10/21 11:05:12;;;;;;;;;;;29.10;93.80;;;;;;4193545;28;19929;-73
2022/10/21 11:07:32;;;;;;;;;;;29.10;94.00;;;;;;4153177;28;19929;-73
2022/10/21 11:09:37;;;;;;;;;;;29.10;94.10;;;;;;4208907;28;19932;-72
2022/10/21 11:11:42;;;;;;;;;;;29.00;94.20;;;;;;4206094;28;19924;-72
2022/10/21 11:13:49;;;;;;;;;;;29.00;94.10;;;;;;4195068;28;19929;-72
2022/10/21 11:16:10;;;;;;;;;;;29.00;94.30;;;;;;4185957;28;19936;-73
2022/10/21 11:18:17;;;;;;;;;;;29.00;94.40;;;;;;4194428;28;19928;-73
2022/10/21 11:20:40;;;;;;;;;;;29.00;94.40;;;;;;4193976;28;20380;-73
2022/10/21 11:22:50;;;;;;;;;;;28.90;94.40;;;;;;4193559;28;20397;-72
2022/10/21 11:25:08;;;;;;;;;;;28.90;94.50;;;;;;4159412;28;19936;-72
2022/10/21 11:27:16;;;;;;;;;;;28.90;94.70;;;;;;4176467;28;19932;-73
2022/10/21 11:29:30;;;;;;;;;;;28.90;94.60;;;;;;4186911;28;19968;-74
2022/10/21 11:31:54;;;;;;;;;;;28.90;94.90;;;;;;4193900;28;19971;-74
2022/10/21 11:34:26;;;;;;;;;;;28.80;95.00;;;;;;4195424;28;19934;-75
2022/10/21 11:36:50;;;;;;;;;;;28.80;94.90;;;;;;4206747;28;19928;-73
2022/10/21 11:39:06;;;;;;;;;;;28.80;95.00;;;;;;4195230;28;19929;-74
2022/10/21 11:41:24;;;;;;;;;;;28.80;95.20;;;;;;4192548;28;20420;-73
2022/10/21 11:43:50;;;;;;;;;;;28.70;95.20;;;;;;4193012;28;20351;-73
2022/10/21 11:45:55;;;;;;;;;;;28.70;95.10;;;;;;4182007;28;19928;-69
2022/10/21 11:48:13;;;;;;;;;;;28.70;95.30;;;;;;4194495;28;19947;-72
2022/10/21 11:50:27;;;;;;;;;;;28.70;95.40;;;;;;4209048;28;19935;-73
2022/10/21 11:52:40;;;;;;;;;;;28.60;95.80;;;;;;4195416;28;19929;-74
2022/10/21 11:54:53;;;;;;;;;;;28.60;95.80;;;;;;4195570;28;20341;-75
2022/10/21 11:57:13;;;;;;;;;;;28.60;95.70;;;;;;4194339;28;19970;-75
2022/10/21 11:59:30;;;;;;;;;;;28.60;95.90;;;;;;4192869;28;20402;-75
2022/10/21 12:01:46;;;;;;;;;;;28.50;96.10;;;;;;4195430;28;19925;-75
2022/10/21 12:03:57;;;;;;;;;;;28.50;96.10;;;;;;4201364;28;19928;-72
2022/10/21 12:06:02;;;;;;;;;;;28.50;96.40;;;;;;4211406;28;19924;-74
2022/10/21 12:08:20;;;;;;;;;;;28.50;96.30;;;;;;4168387;28;19929;-74
2022/10/21 12:10:26;;;;;;;;;;;28.50;96.40;;;;;;4208870;28;19934;-73
2022/10/21 12:12:34;;;;;;;;;;;28.40;96.40;;;;;;4211546;28;19932;-74
2022/10/21 12:14:43;;;;;;;;;;;28.40;96.60;;;;;;4194391;28;19963;-72
2022/10/21 12:16:47;;;;;;;;;;;28.40;96.70;;;;;;4183187;28;20482;-74
2022/10/21 12:19:00;;;;;;;;;;;28.40;96.60;;;;;;4185124;28;19934;-74
2022/10/21 12:21:17;;;;;;;;;;;28.40;96.90;;;;;;4207088;28;20326;-74
2022/10/21 12:23:24;;;;;;;;;;;28.40;96.80;;;;;;4195297;28;19929;-74
2022/10/21 12:25:40;;;;;;;;;;;28.40;96.80;;;;;;4196400;28;19925;-73
2022/10/21 12:27:51;;;;;;;;;;;28.40;96.90;;;;;;4198693;28;19974;-73
2022/10/21 12:29:55;;;;;;;;;;;28.30;96.80;;;;;;4184873;28;19971;-73